Terminal Aerodrome Forecast
Issued by NWS Charleston, WV

Current Version | Previous Version | Text Only | Print | Product List | Glossary Off
Versions: 1 2 3 4 5 6 7 8 9 10 11 12 13 14 15 16 17 18 19 20 21 22 23 24 25 26

000
FTUS41 KRLX 201120
TAFEKN
TAF
KEKN 201120Z 2012/2112 26009KT P6SM FEW250
     FM201600 27011G23KT P6SM FEW050
     FM202100 26006KT P6SM SCT250
     FM210500 00000KT 4SM BR SCT250
     FM210700 00000KT 1 1/2SM BR SCT250=

USA.gov is the U.S. government's official web portal to all federal, state and local government web resources and services.